Buoy 31711

sailwx.info

Track history (hours):
 
Tides and Currents Weather Stations Pressure Air Temp Water Temp Dewpoint Dewpoint Depression Visibility Wind Speed Wind Dir Waves Ship Positions

Drifting buoy 31711

Last reported at 2018-Jan-17 14:00 UTC. Time now 2018-Jun-24 03:10 UTC.
Position N 09°35' W 079°20'.
Warning: this ship's position is months out of date.

Water temperature 27.0 ° C

Date/timePositionNaut miles runAvg speedWind from/ knotsBaromVisibWave heightAir tempDewpointWater temp
2018-Jan-17 14:00N 09°35' W 079°20'1 0.3 27.0
2018-Jan-17 12:00N 09°35' W 079°20'1 0.6 26.7
2018-Jan-17 11:00N 09°34' W 079°20'1 0.8 26.6
2018-Jan-17 10:00N 09°35' W 079°20'1 0.6 26.7
2018-Jan-17 09:00N 09°35' W 079°20'0 0.0 26.7
2018-Jan-17 07:00N 09°35' W 079°20'1 0.1 26.6
2018-Jan-17 02:00N 09°35' W 079°20'0 0.0 26.9
2018-Jan-17 00:00N 09°35' W 079°20'0 0.0 26.9
2018-Jan-16 23:00N 09°35' W 079°20'0 0.0 27.3
2018-Jan-16 22:00N 09°35' W 079°20'0 0.0 27.0
2018-Jan-16 21:00N 09°35' W 079°20'0 0.0 27.5
2018-Jan-16 20:00N 09°35' W 079°20'0 0.0 27.7
2018-Jan-16 03:00N 09°35' W 079°20'0 0.0 26.5
2018-Jan-16 02:00N 09°35' W 079°20'0 0.0 26.8
2018-Jan-16 01:00N 09°35' W 079°20'0 0.0 26.8
2018-Jan-15 23:00N 09°35' W 079°20'1 0.6 27.7
2018-Jan-15 22:00N 09°35' W 079°20'0 0.0 29.0
2018-Jan-15 21:00N 09°35' W 079°20'0 0.0 31.2
2018-Jan-15 20:00N 09°35' W 079°20'1 0.1 27.7
2018-Jan-15 15:00N 09°35' W 079°20'0 0.0 27.5
2018-Jan-15 14:00N 09°35' W 079°20'0 0.0 27.1
2018-Jan-15 13:00N 09°35' W 079°20'0 0.0 26.6
2018-Jan-15 12:00N 09°35' W 079°20'0 0.0 25.8
2018-Jan-15 11:00N 09°35' W 079°20'1 0.8 25.5
2018-Jan-15 10:00N 09°34' W 079°20'0 0.0 26.3
2018-Jan-15 09:00N 09°34' W 079°20'0 0.0 26.3
2018-Jan-15 08:00N 09°34' W 079°20'0 0.0 26.3
2018-Jan-15 07:00N 09°34' W 079°20'1 0.1 26.4
2018-Jan-15 03:00N 09°35' W 079°20'0 0.0 25.7
2018-Jan-15 02:00N 09°35' W 079°20'0 0.0 25.5
2018-Jan-15 01:00N 09°35' W 079°20'1 0.6 26.3
2018-Jan-15 00:00N 09°35' W 079°20'0 0.0 26.3
2018-Jan-14 23:00N 09°35' W 079°20'0 0.0 26.6
2018-Jan-14 21:00N 09°35' W 079°20'0 0.0 31.3
2018-Jan-14 20:00N 09°35' W 079°20'1 0.1 29.8
2018-Jan-14 15:00N 09°35' W 079°20'0 0.0 27.2
2018-Jan-14 14:00N 09°35' W 079°20'0 0.0 26.6
2018-Jan-14 13:00N 09°35' W 079°20'1 0.6 25.6
2018-Jan-14 12:00N 09°35' W 079°20'0 0.0 26.3
2018-Jan-14 11:00N 09°35' W 079°20'0 0.0 26.3
2018-Jan-14 10:00N 09°35' W 079°20'0 0.0 26.3
2018-Jan-14 09:00N 09°35' W 079°20'0 0.0 26.2
2018-Jan-14 08:00N 09°35' W 079°20'0 0.0 26.3
2018-Jan-14 03:00N 09°35' W 079°20'0 0.0 26.4
2018-Jan-14 02:00N 09°35' W 079°20'1 0.6 26.4
2018-Jan-14 01:00N 09°35' W 079°20'0 0.0 26.2
2018-Jan-14 00:00N 09°35' W 079°20'1 0.6 26.3
2018-Jan-13 23:00N 09°35' W 079°20'0 0.0 26.6
2018-Jan-12 15:00N 09°35' W 079°20'1 0.6 27.5
2018-Jan-12 14:00N 09°35' W 079°20'1 0.4 27.2
2018-Jan-12 12:00N 09°34' W 079°20'0 0.0 23.6
2018-Jan-12 11:00N 09°34' W 079°20'1 0.8 23.3
2018-Jan-12 10:00N 09°35' W 079°20'0 0.0 23.2
2018-Jan-12 09:00N 09°35' W 079°20'0 0.0 23.2
2018-Jan-12 08:00N 09°35' W 079°20'1 0.1 23.6
2018-Jan-12 02:00N 09°35' W 079°20'0 0.0 25.4
2018-Jan-12 00:00N 09°35' W 079°20'0 0.0 26.7
2018-Jan-11 23:00N 09°35' W 079°20'0 0.0 28.1
2018-Jan-11 22:00N 09°35' W 079°20'0 0.0 30.4
2018-Jan-11 21:00N 09°35' W 079°20'1 0.8 35.4
2018-Jan-11 20:00N 09°35' W 079°20'1 0.1 35.5
2018-Jan-11 15:00N 09°35' W 079°20'0 0.0 27.2
2018-Jan-11 14:00N 09°35' W 079°20'1 0.6 27.3
2018-Jan-11 13:00N 09°35' W 079°20'1 0.6 27.2
2018-Jan-11 12:00N 09°35' W 079°20'0 0.0 26.8
2018-Jan-11 11:00N 09°35' W 079°20'0 0.0 26.4
2018-Jan-11 10:00N 09°35' W 079°20'1 0.6 24.4
2018-Jan-11 09:00N 09°35' W 079°20'1 0.6 24.3
2018-Jan-11 08:00N 09°35' W 079°20'1 0.1 24.2
2018-Jan-11 03:00N 09°35' W 079°20'0 0.0 24.9
2018-Jan-11 02:00N 09°35' W 079°20'0 0.0 25.4
2018-Jan-11 01:00N 09°35' W 079°20'0 0.0 26.3
2018-Jan-11 00:00N 09°35' W 079°20'1 0.6 25.6
2018-Jan-10 23:00N 09°35' W 079°20'0 0.0 27.4
2018-Jan-10 20:00N 09°35' W 079°20'1 0.1 27.7
2018-Jan-10 15:00N 09°35' W 079°20'0 0.0 27.7
2018-Jan-10 14:00N 09°35' W 079°20'0 0.0 27.3
2018-Jan-10 12:00N 09°35' W 079°20'0 0.0 27.1
2018-Jan-10 11:00N 09°35' W 079°20'0 0.0 27.1
2018-Jan-10 09:00N 09°35' W 079°20'0 0.0 24.7
2018-Jan-10 08:00N 09°35' W 079°20'0 0.0 24.8
2018-Jan-10 03:00N 09°35' W 079°20'0 0.0 25.6
2018-Jan-10 02:00N 09°35' W 079°20'0 0.0 27.2
2018-Jan-10 01:00N 09°35' W 079°20'1 0.6 27.4
2018-Jan-10 00:00N 09°35' W 079°20'0 0.0 27.4
2018-Jan-09 23:00N 09°35' W 079°20'1 0.8 27.4
2018-Jan-09 22:00N 09°34' W 079°21'0 0.0 27.9
2018-Jan-09 20:00N 09°34' W 079°21'1 0.1 27.4
2018-Jan-09 14:00N 09°34' W 079°20'0 0.0 27.6
2018-Jan-09 13:00N 09°34' W 079°20'1 0.6 27.5
2018-Jan-09 12:00N 09°35' W 079°20'0 0.0 27.4
2018-Jan-09 11:00N 09°35' W 079°20'1 0.3 27.5
2018-Jan-09 09:00N 09°35' W 079°20'0 0.0 27.4
2018-Jan-09 07:00N 09°35' W 079°20'0 0.0 25.2
2018-Jan-09 03:00N 09°35' W 079°20'0 0.0 25.7
2018-Jan-09 02:00N 09°35' W 079°20'0 0.0 27.1
2018-Jan-09 01:00N 09°35' W 079°20'0 0.0 27.5
2018-Jan-08 23:00N 09°35' W 079°20'0 0.0 28.1
2018-Jan-08 21:00N 09°35' W 079°20'0 0.0 28.9
2018-Jan-08 20:00N 09°35' W 079°20'0 0.0 29.4
2018-Jan-08 15:00N 09°35' W 079°20'0 0.0 27.7
2018-Jan-08 14:00N 09°35' W 079°20'0 0.0 27.2
2018-Jan-08 12:00N 09°35' W 079°20'0 0.0 27.0
2018-Jan-08 11:00N 09°35' W 079°20'1 0.6 27.1
2018-Jan-08 10:00N 09°34' W 079°20'1 0.1 27.1
2018-Jan-08 02:00N 09°35' W 079°20'1 0.6 26.5
2018-Jan-08 01:00N 09°35' W 079°20'1 0.6 27.5
2018-Jan-08 00:00N 09°35' W 079°20'0 0.0 27.6
2018-Jan-07 23:00N 09°35' W 079°20'0 0.0 27.8
2018-Jan-07 21:00N 09°35' W 079°20'0 0.0 28.1
2018-Jan-07 20:00N 09°35' W 079°20'0 0.0 28.2
2018-Jan-07 15:00N 09°35' W 079°20'0 0.0 27.3
2018-Jan-07 14:00N 09°35' W 079°20'   27.2
Track history (hours):
 
Tides and Currents Weather Stations Pressure Air Temp Water Temp Dewpoint Dewpoint Depression Visibility Wind Speed Wind Dir Waves Ship Positions

Drifting buoy 31711

Last reported at 2018-Jan-17 14:00 UTC. Time now 2018-Jun-24 03:10 UTC.
Position N 09°35' W 079°20'.
Warning: this ship's position is months out of date.

Water temperature 27.0 ° C

Date/timePositionNaut miles runAvg speedWind from/ knotsBaromVisibWave heightAir tempDewpointWater temp
2018-Jan-17 14:00N 09°35' W 079°20'1 0.3 27.0
2018-Jan-17 12:00N 09°35' W 079°20'1 0.6 26.7
2018-Jan-17 11:00N 09°34' W 079°20'1 0.8 26.6
2018-Jan-17 10:00N 09°35' W 079°20'1 0.6 26.7
2018-Jan-17 09:00N 09°35' W 079°20'0 0.0 26.7
2018-Jan-17 07:00N 09°35' W 079°20'1 0.1 26.6
2018-Jan-17 02:00N 09°35' W 079°20'0 0.0 26.9
2018-Jan-17 00:00N 09°35' W 079°20'0 0.0 26.9
2018-Jan-16 23:00N 09°35' W 079°20'0 0.0 27.3
2018-Jan-16 22:00N 09°35' W 079°20'0 0.0 27.0
2018-Jan-16 21:00N 09°35' W 079°20'0 0.0 27.5
2018-Jan-16 20:00N 09°35' W 079°20'0 0.0 27.7
2018-Jan-16 03:00N 09°35' W 079°20'0 0.0 26.5
2018-Jan-16 02:00N 09°35' W 079°20'0 0.0 26.8
2018-Jan-16 01:00N 09°35' W 079°20'0 0.0 26.8
2018-Jan-15 23:00N 09°35' W 079°20'1 0.6 27.7
2018-Jan-15 22:00N 09°35' W 079°20'0 0.0 29.0
2018-Jan-15 21:00N 09°35' W 079°20'0 0.0 31.2
2018-Jan-15 20:00N 09°35' W 079°20'1 0.1 27.7
2018-Jan-15 15:00N 09°35' W 079°20'0 0.0 27.5
2018-Jan-15 14:00N 09°35' W 079°20'0 0.0 27.1
2018-Jan-15 13:00N 09°35' W 079°20'0 0.0 26.6
2018-Jan-15 12:00N 09°35' W 079°20'0 0.0 25.8
2018-Jan-15 11:00N 09°35' W 079°20'1 0.8 25.5
2018-Jan-15 10:00N 09°34' W 079°20'0 0.0 26.3
2018-Jan-15 09:00N 09°34' W 079°20'0 0.0 26.3
2018-Jan-15 08:00N 09°34' W 079°20'0 0.0 26.3
2018-Jan-15 07:00N 09°34' W 079°20'1 0.1 26.4
2018-Jan-15 03:00N 09°35' W 079°20'0 0.0 25.7
2018-Jan-15 02:00N 09°35' W 079°20'0 0.0 25.5
2018-Jan-15 01:00N 09°35' W 079°20'1 0.6 26.3
2018-Jan-15 00:00N 09°35' W 079°20'0 0.0 26.3
2018-Jan-14 23:00N 09°35' W 079°20'0 0.0 26.6
2018-Jan-14 21:00N 09°35' W 079°20'0 0.0 31.3
2018-Jan-14 20:00N 09°35' W 079°20'1 0.1 29.8
2018-Jan-14 15:00N 09°35' W 079°20'0 0.0 27.2
2018-Jan-14 14:00N 09°35' W 079°20'0 0.0 26.6
2018-Jan-14 13:00N 09°35' W 079°20'1 0.6 25.6
2018-Jan-14 12:00N 09°35' W 079°20'0 0.0 26.3
2018-Jan-14 11:00N 09°35' W 079°20'0 0.0 26.3
2018-Jan-14 10:00N 09°35' W 079°20'0 0.0 26.3
2018-Jan-14 09:00N 09°35' W 079°20'0 0.0 26.2
2018-Jan-14 08:00N 09°35' W 079°20'0 0.0 26.3
2018-Jan-14 03:00N 09°35' W 079°20'0 0.0 26.4
2018-Jan-14 02:00N 09°35' W 079°20'1 0.6 26.4
2018-Jan-14 01:00N 09°35' W 079°20'0 0.0 26.2
2018-Jan-14 00:00N 09°35' W 079°20'1 0.6 26.3
2018-Jan-13 23:00N 09°35' W 079°20'0 0.0 26.6
2018-Jan-12 15:00N 09°35' W 079°20'1 0.6 27.5
2018-Jan-12 14:00N 09°35' W 079°20'1 0.4 27.2
2018-Jan-12 12:00N 09°34' W 079°20'0 0.0 23.6
2018-Jan-12 11:00N 09°34' W 079°20'1 0.8 23.3
2018-Jan-12 10:00N 09°35' W 079°20'0 0.0 23.2
2018-Jan-12 09:00N 09°35' W 079°20'0 0.0 23.2
2018-Jan-12 08:00N 09°35' W 079°20'1 0.1 23.6
2018-Jan-12 02:00N 09°35' W 079°20'0 0.0 25.4
2018-Jan-12 00:00N 09°35' W 079°20'0 0.0 26.7
2018-Jan-11 23:00N 09°35' W 079°20'0 0.0 28.1
2018-Jan-11 22:00N 09°35' W 079°20'0 0.0 30.4
2018-Jan-11 21:00N 09°35' W 079°20'1 0.8 35.4
2018-Jan-11 20:00N 09°35' W 079°20'1 0.1 35.5
2018-Jan-11 15:00N 09°35' W 079°20'0 0.0 27.2
2018-Jan-11 14:00N 09°35' W 079°20'1 0.6 27.3
2018-Jan-11 13:00N 09°35' W 079°20'1 0.6 27.2
2018-Jan-11 12:00N 09°35' W 079°20'0 0.0 26.8
2018-Jan-11 11:00N 09°35' W 079°20'0 0.0 26.4
2018-Jan-11 10:00N 09°35' W 079°20'1 0.6 24.4
2018-Jan-11 09:00N 09°35' W 079°20'1 0.6 24.3
2018-Jan-11 08:00N 09°35' W 079°20'1 0.1 24.2
2018-Jan-11 03:00N 09°35' W 079°20'0 0.0 24.9
2018-Jan-11 02:00N 09°35' W 079°20'0 0.0 25.4
2018-Jan-11 01:00N 09°35' W 079°20'0 0.0 26.3
2018-Jan-11 00:00N 09°35' W 079°20'1 0.6 25.6
2018-Jan-10 23:00N 09°35' W 079°20'0 0.0 27.4
2018-Jan-10 20:00N 09°35' W 079°20'1 0.1 27.7
2018-Jan-10 15:00N 09°35' W 079°20'0 0.0 27.7
2018-Jan-10 14:00N 09°35' W 079°20'0 0.0 27.3
2018-Jan-10 12:00N 09°35' W 079°20'0 0.0 27.1
2018-Jan-10 11:00N 09°35' W 079°20'0 0.0 27.1
2018-Jan-10 09:00N 09°35' W 079°20'0 0.0 24.7
2018-Jan-10 08:00N 09°35' W 079°20'0 0.0 24.8
2018-Jan-10 03:00N 09°35' W 079°20'0 0.0 25.6
2018-Jan-10 02:00N 09°35' W 079°20'0 0.0 27.2
2018-Jan-10 01:00N 09°35' W 079°20'1 0.6 27.4
2018-Jan-10 00:00N 09°35' W 079°20'0 0.0 27.4
2018-Jan-09 23:00N 09°35' W 079°20'1 0.8 27.4
2018-Jan-09 22:00N 09°34' W 079°21'0 0.0 27.9
2018-Jan-09 20:00N 09°34' W 079°21'1 0.1 27.4
2018-Jan-09 14:00N 09°34' W 079°20'0 0.0 27.6
2018-Jan-09 13:00N 09°34' W 079°20'1 0.6 27.5
2018-Jan-09 12:00N 09°35' W 079°20'0 0.0 27.4
2018-Jan-09 11:00N 09°35' W 079°20'1 0.3 27.5
2018-Jan-09 09:00N 09°35' W 079°20'0 0.0 27.4
2018-Jan-09 07:00N 09°35' W 079°20'0 0.0 25.2
2018-Jan-09 03:00N 09°35' W 079°20'0 0.0 25.7
2018-Jan-09 02:00N 09°35' W 079°20'0 0.0 27.1
2018-Jan-09 01:00N 09°35' W 079°20'0 0.0 27.5
2018-Jan-08 23:00N 09°35' W 079°20'0 0.0 28.1
2018-Jan-08 21:00N 09°35' W 079°20'0 0.0 28.9
2018-Jan-08 20:00N 09°35' W 079°20'0 0.0 29.4
2018-Jan-08 15:00N 09°35' W 079°20'0 0.0 27.7
2018-Jan-08 14:00N 09°35' W 079°20'0 0.0 27.2
2018-Jan-08 12:00N 09°35' W 079°20'0 0.0 27.0
2018-Jan-08 11:00N 09°35' W 079°20'1 0.6 27.1
2018-Jan-08 10:00N 09°34' W 079°20'1 0.1 27.1
2018-Jan-08 02:00N 09°35' W 079°20'1 0.6 26.5
2018-Jan-08 01:00N 09°35' W 079°20'1 0.6 27.5
2018-Jan-08 00:00N 09°35' W 079°20'0 0.0 27.6
2018-Jan-07 23:00N 09°35' W 079°20'0 0.0 27.8
2018-Jan-07 21:00N 09°35' W 079°20'0 0.0 28.1
2018-Jan-07 20:00N 09°35' W 079°20'0 0.0 28.2
2018-Jan-07 15:00N 09°35' W 079°20'0 0.0 27.3
2018-Jan-07 14:00N 09°35' W 079°20'   27.2

Dump ship's entire track history